createdAt,value
2022-11-04T00:02:20.199Z,100.00
2022-11-04T00:04:46.826Z,100.00
2022-11-04T00:07:13.489Z,100.00
2022-11-04T00:09:40.053Z,100.00
2022-11-04T00:12:06.681Z,100.00
2022-11-04T00:14:33.333Z,100.00
2022-11-04T00:17:00.052Z,99.23
2022-11-04T00:19:27.167Z,100.00
2022-11-04T00:21:53.771Z,99.93
2022-11-04T00:24:20.279Z,100.00
2022-11-04T00:26:46.901Z,99.93
2022-11-04T00:29:13.785Z,98.77
2022-11-04T00:31:40.388Z,99.61
2022-11-04T00:34:06.977Z,99.24
2022-11-04T00:36:33.561Z,98.96
2022-11-04T00:39:00.151Z,99.52
2022-11-04T00:41:27.303Z,99.11
2022-11-04T00:44:04.141Z,98.64
2022-11-04T00:46:32.225Z,99.14
2022-11-04T00:48:58.961Z,99.15
2022-11-04T00:51:25.489Z,98.24
2022-11-04T00:53:52.149Z,99.81
2022-11-04T00:56:19.269Z,98.49
2022-11-04T00:58:45.851Z,97.39
2022-11-04T01:01:13.979Z,98.21
2022-11-04T01:03:40.629Z,99.05
2022-11-04T01:06:07.217Z,97.95
2022-11-04T01:08:33.884Z,97.87
2022-11-04T01:11:04.491Z,98.35
2022-11-04T01:13:31.294Z,97.12
2022-11-04T01:16:01.918Z,96.41
2022-11-04T01:18:28.499Z,95.34
2022-11-04T01:20:55.105Z,95.41
2022-11-04T01:23:22.047Z,95.59
2022-11-04T01:25:48.642Z,95.43
2022-11-04T01:28:15.251Z,95.66
2022-11-04T01:30:41.959Z,95.07
2022-11-04T01:33:08.595Z,95.83
2022-11-04T01:35:35.240Z,95.80
2022-11-04T01:38:01.828Z,95.63
2022-11-04T01:40:28.428Z,95.11
2022-11-04T01:42:54.963Z,96.02
2022-11-04T01:45:21.859Z,97.48
2022-11-04T01:48:01.771Z,97.04
2022-11-04T01:50:29.520Z,98.03
2022-11-04T01:53:02.400Z,97.50
2022-11-04T01:55:31.887Z,97.87
2022-11-04T01:58:01.410Z,98.64
2022-11-04T02:00:28.186Z,98.65
2022-11-04T02:03:04.171Z,97.66
2022-11-04T02:05:30.951Z,98.83
2022-11-04T02:07:58.151Z,98.65
2022-11-04T02:10:28.952Z,98.82
2022-11-04T02:12:56.113Z,99.21
2022-11-04T02:15:44.151Z,99.60
2022-11-04T02:18:19.950Z,100.00
2022-11-04T02:21:10.911Z,99.65
2022-11-04T02:23:56.187Z,99.18
2022-11-04T02:26:41.318Z,99.77
2022-11-04T02:29:32.151Z,99.82
2022-11-04T02:32:16.821Z,100.00
2022-11-04T02:35:01.715Z,99.57
2022-11-04T02:37:46.948Z,100.00
2022-11-04T02:40:23.129Z,100.00
2022-11-04T02:43:30.980Z,100.00
2022-11-04T02:46:17.704Z,100.00
2022-11-04T02:49:22.884Z,100.00
2022-11-04T02:51:58.943Z,100.00
2022-11-04T02:54:31.450Z,100.00
2022-11-04T02:56:58.761Z,100.00
2022-11-04T02:59:51.546Z,100.00
2022-11-04T03:02:20.709Z,100.00
2022-11-04T03:04:48.458Z,100.00
2022-11-04T03:07:15.767Z,100.00
2022-11-04T03:09:45.034Z,100.00
2022-11-04T03:12:13.282Z,100.00
2022-11-04T03:14:51.875Z,100.00
2022-11-04T03:17:21.852Z,100.00
2022-11-04T03:19:58.684Z,100.00
2022-11-04T03:22:29.615Z,100.00
2022-11-04T03:24:56.422Z,100.00
2022-11-04T03:27:35.807Z,100.00
2022-11-04T03:30:05.918Z,100.00
2022-11-04T03:32:46.326Z,100.00
2022-11-04T03:35:14.112Z,100.00
2022-11-04T03:37:40.674Z,100.00
2022-11-04T03:40:07.664Z,100.00
2022-11-04T03:42:35.964Z,100.00
2022-11-04T03:45:02.646Z,100.00
2022-11-04T03:47:29.707Z,100.00
2022-11-04T03:50:01.093Z,100.00
2022-11-04T03:52:27.647Z,100.00
2022-11-04T03:54:54.245Z,100.00
2022-11-04T03:57:41.851Z,100.00
2022-11-04T04:00:16.271Z,100.00
2022-11-04T04:02:48.932Z,100.00
2022-11-04T04:05:31.714Z,100.00
2022-11-04T04:08:04.328Z,100.00
2022-11-04T04:10:50.115Z,100.00
2022-11-04T04:13:35.049Z,100.00
2022-11-04T04:16:13.958Z,100.00
2022-11-04T04:18:49.733Z,100.00
2022-11-04T04:21:26.351Z,100.00
2022-11-04T04:23:52.936Z,100.00
2022-11-04T04:26:19.631Z,100.00
2022-11-04T04:28:46.218Z,100.00
2022-11-04T04:31:12.892Z,100.00
2022-11-04T04:33:39.478Z,100.00
2022-11-04T04:36:06.452Z,100.00
2022-11-04T04:38:33.111Z,100.00
2022-11-04T04:41:20.209Z,100.00
2022-11-04T04:43:46.751Z,100.00
2022-11-04T04:46:13.315Z,100.00
2022-11-04T04:48:40.714Z,100.00
2022-11-04T04:51:07.359Z,100.00
2022-11-04T04:53:34.331Z,100.00
2022-11-04T04:56:00.908Z,100.00
2022-11-04T04:58:27.638Z,100.00
2022-11-04T05:00:54.415Z,100.00
2022-11-04T05:03:21.100Z,100.00
2022-11-04T05:05:47.795Z,100.00
2022-11-04T05:08:17.689Z,100.00
2022-11-04T05:10:44.480Z,100.00
2022-11-04T05:13:12.841Z,100.00
2022-11-04T05:15:39.568Z,100.00
2022-11-04T05:18:06.542Z,100.00
2022-11-04T05:20:33.450Z,100.00
2022-11-04T05:23:00.192Z,100.00
2022-11-04T05:25:26.793Z,100.00
2022-11-04T05:27:53.359Z,100.00
2022-11-04T05:30:20.158Z,100.00
2022-11-04T05:32:46.712Z,100.00
2022-11-04T05:35:13.314Z,100.00
2022-11-04T05:37:40.304Z,100.00
2022-11-04T05:40:07.479Z,100.00
2022-11-04T05:42:34.129Z,100.00
2022-11-04T05:45:00.805Z,100.00
2022-11-04T05:47:27.427Z,100.00
2022-11-04T05:49:54.016Z,100.00
2022-11-04T05:52:20.609Z,100.00
2022-11-04T05:54:47.233Z,100.00
2022-11-04T05:57:13.887Z,100.00
2022-11-04T05:59:40.660Z,100.00
2022-11-04T06:02:07.506Z,100.00
2022-11-04T06:04:34.334Z,100.00
2022-11-04T06:07:00.926Z,100.00
2022-11-04T06:09:27.523Z,100.00
2022-11-04T06:11:54.140Z,100.00
2022-11-04T06:14:21.875Z,100.00
2022-11-04T06:16:48.510Z,100.00
2022-11-04T06:19:16.383Z,100.00
2022-11-04T06:21:43.267Z,100.00
2022-11-04T06:24:09.865Z,100.00
2022-11-04T06:26:36.648Z,100.00
2022-11-04T06:29:03.263Z,100.00
2022-11-04T06:31:30.106Z,100.00
2022-11-04T06:33:56.936Z,100.00
2022-11-04T06:36:23.500Z,100.00
2022-11-04T06:38:50.102Z,100.00
2022-11-04T06:41:20.559Z,100.00
2022-11-04T06:43:47.271Z,100.00
2022-11-04T06:46:30.984Z,100.00
2022-11-04T06:48:57.621Z,100.00
2022-11-04T06:51:24.967Z,100.00
2022-11-04T06:53:51.679Z,100.00
2022-11-04T06:56:18.498Z,100.00
2022-11-04T06:58:48.213Z,100.00
2022-11-04T07:01:21.243Z,100.00
2022-11-04T07:03:49.984Z,100.00
2022-11-04T07:06:16.594Z,100.00
2022-11-04T07:08:43.359Z,100.00
2022-11-04T07:11:09.986Z,100.00
2022-11-04T07:13:36.665Z,100.00
2022-11-04T07:16:07.424Z,100.00
2022-11-04T07:18:34.279Z,100.00
2022-11-04T07:21:04.473Z,100.00
2022-11-04T07:23:34.041Z,100.00
2022-11-04T07:26:05.083Z,100.00
2022-11-04T07:28:31.778Z,100.00
2022-11-04T07:30:58.952Z,100.00
2022-11-04T07:33:25.854Z,100.00
2022-11-04T07:35:57.190Z,99.77
2022-11-04T07:38:25.139Z,100.00
2022-11-04T07:40:51.895Z,98.32
2022-11-04T07:43:18.456Z,98.83
2022-11-04T07:45:45.214Z,99.83
2022-11-04T07:48:12.119Z,100.00
2022-11-04T07:50:39.693Z,100.00
2022-11-04T07:53:06.646Z,100.00
2022-11-04T07:55:33.482Z,99.85
2022-11-04T07:58:00.120Z,99.48
2022-11-04T08:00:26.830Z,99.27
2022-11-04T08:02:53.451Z,100.00
2022-11-04T08:05:20.052Z,100.00
2022-11-04T08:07:46.708Z,99.80
2022-11-04T08:10:13.333Z,100.00
2022-11-04T08:12:39.924Z,100.00
2022-11-04T08:15:07.379Z,100.00
2022-11-04T08:17:33.967Z,100.00
2022-11-04T08:20:00.629Z,100.00
2022-11-04T08:22:32.602Z,100.00
2022-11-04T08:24:59.696Z,100.00
2022-11-04T08:27:26.248Z,100.00
2022-11-04T08:29:52.858Z,100.00
2022-11-04T08:32:19.436Z,100.00
2022-11-04T08:34:46.015Z,99.94
2022-11-04T08:37:16.410Z,100.00
2022-11-04T08:39:43.186Z,100.00
2022-11-04T08:42:10.362Z,100.00
2022-11-04T08:44:37.000Z,100.00
2022-11-04T08:47:03.709Z,99.60
2022-11-04T08:49:30.381Z,99.91
2022-11-04T08:51:56.954Z,100.00
2022-11-04T08:54:24.511Z,100.00
2022-11-04T08:56:51.296Z,100.00
2022-11-04T08:59:17.861Z,100.00
2022-11-04T09:01:44.597Z,99.37
2022-11-04T09:04:12.094Z,99.09
2022-11-04T09:06:40.058Z,99.54
2022-11-04T09:09:07.678Z,99.36
2022-11-04T09:11:36.526Z,97.83
2022-11-04T09:14:03.283Z,99.06
2022-11-04T09:16:30.535Z,97.27
2022-11-04T09:18:57.540Z,98.37
2022-11-04T09:21:24.792Z,98.66
2022-11-04T09:23:51.383Z,98.09
2022-11-04T09:26:18.152Z,97.34
2022-11-04T09:28:44.880Z,98.04
2022-11-04T09:31:14.343Z,98.31
2022-11-04T09:33:41.332Z,98.25
2022-11-04T09:36:08.172Z,97.42
2022-11-04T09:38:35.621Z,97.36
2022-11-04T09:41:26.494Z,98.80
2022-11-04T09:44:05.204Z,98.14
2022-11-04T09:46:32.313Z,98.40
2022-11-04T09:48:58.880Z,97.73
2022-11-04T09:51:52.481Z,98.10
2022-11-04T09:54:19.726Z,97.18
2022-11-04T09:56:48.080Z,94.71
2022-11-04T09:59:17.709Z,96.05
2022-11-04T10:02:15.317Z,95.65
2022-11-04T10:05:24.844Z,94.96
2022-11-04T10:08:00.496Z,95.18
2022-11-04T10:10:38.872Z,95.44
2022-11-04T10:13:17.444Z,96.03
2022-11-04T10:15:47.962Z,96.44
2022-11-04T10:18:36.870Z,95.87
2022-11-04T10:21:24.541Z,95.28
2022-11-04T10:23:57.090Z,95.85
2022-11-04T10:26:42.132Z,95.46
2022-11-04T10:29:15.961Z,94.02
2022-11-04T10:31:43.567Z,95.15
2022-11-04T10:34:37.404Z,94.21
2022-11-04T10:37:04.035Z,94.31
2022-11-04T10:39:34.446Z,95.36
2022-11-04T10:42:02.095Z,93.79
2022-11-04T10:44:30.128Z,94.60
2022-11-04T10:47:15.561Z,93.99
2022-11-04T10:50:27.783Z,93.23
2022-11-04T10:52:51.108Z,93.10
2022-11-04T10:55:38.675Z,93.47
2022-11-04T10:58:18.500Z,94.96
2022-11-04T11:00:45.272Z,94.69
2022-11-04T11:03:35.090Z,94.54
2022-11-04T11:06:22.116Z,92.84
2022-11-04T11:08:49.132Z,94.10
2022-11-04T11:11:15.738Z,94.77
2022-11-04T11:13:45.213Z,94.04
2022-11-04T11:16:25.623Z,93.75
2022-11-04T11:19:12.986Z,93.64
2022-11-04T11:21:46.509Z,93.68
2022-11-04T11:24:20.744Z,93.35
2022-11-04T11:26:47.480Z,93.19
2022-11-04T11:29:17.056Z,93.17
2022-11-04T11:31:43.957Z,92.61
2022-11-04T11:34:37.665Z,94.01
2022-11-04T11:37:05.056Z,93.31
2022-11-04T11:39:33.036Z,93.81
2022-11-04T11:42:01.717Z,93.21
2022-11-04T11:44:38.004Z,94.63
2022-11-04T11:47:06.225Z,93.98
2022-11-04T11:49:34.638Z,92.74
2022-11-04T11:52:28.975Z,92.63
2022-11-04T11:55:28.587Z,92.21
2022-11-04T12:01:46.836Z,93.95
2022-11-04T12:10:50.492Z,94.51
2022-11-04T12:13:24.500Z,94.19
2022-11-04T12:16:23.372Z,93.26
2022-11-04T12:18:57.786Z,94.47
2022-11-04T12:21:25.780Z,94.02
2022-11-04T12:23:55.341Z,93.63
2022-11-04T12:26:35.122Z,94.19
2022-11-04T12:29:33.310Z,93.82
2022-11-04T12:32:15.699Z,94.29
2022-11-04T12:35:01.142Z,93.96
2022-11-04T12:38:16.920Z,94.29
2022-11-04T12:41:32.228Z,94.27
2022-11-04T12:44:00.569Z,94.32
2022-11-04T12:46:36.873Z,95.22
2022-11-04T12:49:37.548Z,95.16
2022-11-04T12:52:16.939Z,96.31
2022-11-04T12:55:05.376Z,94.71
2022-11-04T12:57:35.925Z,95.17
2022-11-04T13:00:09.741Z,95.66
2022-11-04T13:02:51.965Z,96.08
2022-11-04T13:05:21.366Z,95.23
2022-11-04T13:08:24.818Z,95.61
2022-11-04T13:10:53.286Z,95.63
2022-11-04T13:13:23.217Z,95.19
2022-11-04T13:15:58.068Z,94.44
2022-11-04T13:18:26.766Z,95.64
2022-11-04T13:21:03.857Z,94.67
2022-11-04T13:23:51.581Z,93.70
2022-11-04T13:26:18.443Z,95.50
2022-11-04T13:28:48.128Z,94.92
2022-11-04T13:31:21.988Z,95.12
2022-11-04T13:33:56.156Z,94.12
2022-11-04T13:36:22.952Z,93.96
2022-11-04T13:38:58.066Z,95.93
2022-11-04T13:41:42.992Z,95.63
2022-11-04T13:44:15.806Z,95.59
2022-11-04T13:46:47.356Z,94.62
2022-11-04T13:49:13.822Z,95.07
2022-11-04T13:51:42.236Z,94.52
2022-11-04T13:54:50.707Z,95.52
2022-11-04T13:57:18.904Z,96.21
2022-11-04T14:00:16.724Z,96.49
2022-11-04T14:02:46.284Z,95.96
2022-11-04T14:05:28.105Z,96.33
2022-11-04T14:08:00.619Z,96.71
2022-11-04T14:10:45.910Z,95.12
2022-11-04T14:13:27.748Z,96.43
2022-11-04T14:16:02.441Z,96.22
2022-11-04T14:18:33.841Z,95.81
2022-11-04T14:21:14.350Z,95.47
2022-11-04T14:23:48.734Z,96.71
2022-11-04T14:26:19.419Z,96.79
2022-11-04T14:28:48.697Z,95.52
2022-11-04T14:31:34.745Z,95.86
2022-11-04T14:34:01.470Z,96.88
2022-11-04T14:36:30.144Z,96.46
2022-11-04T14:39:12.020Z,96.35
2022-11-04T14:41:41.498Z,96.48
2022-11-04T14:44:14.358Z,96.82
2022-11-04T14:46:43.087Z,96.38
2022-11-04T14:49:38.040Z,97.92
2022-11-04T14:52:06.108Z,95.76
2022-11-04T14:54:33.268Z,96.76
2022-11-04T14:57:20.185Z,96.65
2022-11-04T14:59:46.801Z,96.98
2022-11-04T15:02:21.730Z,96.64
2022-11-04T15:04:59.017Z,96.34
2022-11-04T15:07:33.867Z,96.09
2022-11-04T15:10:00.953Z,94.01
2022-11-04T15:12:27.638Z,95.61
2022-11-04T15:14:54.807Z,94.97
2022-11-04T15:17:22.161Z,95.59
2022-11-04T15:19:52.890Z,95.24
2022-11-04T15:22:19.488Z,95.66
2022-11-04T15:24:46.310Z,95.30
2022-11-04T15:27:17.477Z,96.18
2022-11-04T15:29:57.582Z,95.45
2022-11-04T15:32:24.436Z,95.63
2022-11-04T15:34:51.241Z,95.81
2022-11-04T15:37:18.032Z,96.67
2022-11-04T15:39:45.344Z,97.32
2022-11-04T15:42:17.615Z,97.40
2022-11-04T15:44:50.202Z,96.75
2022-11-04T15:47:19.673Z,95.85
2022-11-04T15:49:46.985Z,97.00
2022-11-04T15:52:19.174Z,96.58
2022-11-04T15:54:47.254Z,96.25
2022-11-04T15:57:25.370Z,97.31
2022-11-04T15:59:58.000Z,97.29
2022-11-04T16:02:28.678Z,97.36
2022-11-04T16:05:05.759Z,97.14
2022-11-04T16:07:39.752Z,97.07
2022-11-04T16:10:29.680Z,96.94
2022-11-04T16:13:04.153Z,97.88
2022-11-04T16:15:36.142Z,97.86
2022-11-04T16:18:02.797Z,96.76
2022-11-04T16:20:29.673Z,98.72
2022-11-04T16:22:57.288Z,98.70
2022-11-04T16:25:23.955Z,98.75
2022-11-04T16:27:50.677Z,99.55
2022-11-04T16:30:21.717Z,99.30
2022-11-04T16:32:54.999Z,98.23
2022-11-04T16:35:22.410Z,99.81
2022-11-04T16:37:49.589Z,99.23
2022-11-04T16:40:16.412Z,97.66
2022-11-04T16:42:43.625Z,100.00
2022-11-04T16:45:19.519Z,99.99
2022-11-04T16:47:46.116Z,98.63
2022-11-04T16:50:15.910Z,99.02
2022-11-04T16:52:44.351Z,100.00
2022-11-04T16:55:14.478Z,99.02
2022-11-04T16:57:41.039Z,99.36
2022-11-04T17:00:08.312Z,99.11
2022-11-04T17:02:35.861Z,99.37
2022-11-04T17:05:02.443Z,99.67
2022-11-04T17:07:47.390Z,100.00
2022-11-04T17:10:18.950Z,99.21
2022-11-04T17:12:45.692Z,99.33
2022-11-04T17:15:12.708Z,99.49
2022-11-04T17:17:39.537Z,100.00
2022-11-04T17:20:06.644Z,100.00
2022-11-04T17:22:33.788Z,99.85
2022-11-04T17:25:00.824Z,100.00
2022-11-04T17:27:27.447Z,100.00
2022-11-04T17:29:53.976Z,100.00
2022-11-04T17:32:20.568Z,100.00
2022-11-04T17:34:47.451Z,99.73
2022-11-04T17:37:14.114Z,99.79
2022-11-04T17:39:40.971Z,100.00
2022-11-04T17:42:07.674Z,100.00
2022-11-04T17:44:34.263Z,100.00
2022-11-04T17:47:00.995Z,100.00
2022-11-04T17:49:28.526Z,100.00
2022-11-04T17:51:58.328Z,100.00
2022-11-04T17:54:25.430Z,100.00
2022-11-04T17:56:52.093Z,100.00
2022-11-04T17:59:18.701Z,100.00
2022-11-04T18:01:45.517Z,100.00
2022-11-04T18:04:13.404Z,100.00
2022-11-04T18:06:39.989Z,100.00
2022-11-04T18:09:06.615Z,100.00
2022-11-04T18:11:33.220Z,100.00
2022-11-04T18:13:59.847Z,100.00
2022-11-04T18:16:26.483Z,100.00
2022-11-04T18:18:53.096Z,100.00
2022-11-04T18:21:20.380Z,100.00
2022-11-04T18:23:46.929Z,100.00
2022-11-04T18:26:13.520Z,100.00
2022-11-04T18:28:40.082Z,100.00
2022-11-04T18:31:11.749Z,100.00
2022-11-04T18:33:38.295Z,100.00
2022-11-04T18:36:05.280Z,100.00
2022-11-04T18:38:32.432Z,100.00
2022-11-04T18:40:59.105Z,100.00
2022-11-04T18:43:25.663Z,100.00
2022-11-04T18:45:52.236Z,100.00
2022-11-04T18:48:20.965Z,100.00
2022-11-04T18:50:47.892Z,100.00
2022-11-04T18:53:15.035Z,100.00
2022-11-04T18:55:41.752Z,100.00
2022-11-04T18:58:08.637Z,100.00
2022-11-04T19:00:35.465Z,100.00
2022-11-04T19:03:02.090Z,100.00
2022-11-04T19:05:28.665Z,100.00
2022-11-04T19:07:55.334Z,100.00
2022-11-04T19:10:22.050Z,100.00
2022-11-04T19:12:52.240Z,100.00
2022-11-04T19:15:18.928Z,100.00
2022-11-04T19:17:45.450Z,100.00
2022-11-04T19:20:13.037Z,100.00
2022-11-04T19:22:40.312Z,100.00
2022-11-04T19:25:07.361Z,100.00
2022-11-04T19:27:34.261Z,100.00
2022-11-04T19:30:00.820Z,100.00
2022-11-04T19:32:27.356Z,100.00
2022-11-04T19:34:53.931Z,100.00
2022-11-04T19:37:20.653Z,100.00
2022-11-04T19:39:47.251Z,99.45
2022-11-04T19:42:13.891Z,100.00
2022-11-04T19:44:42.275Z,100.00
2022-11-04T19:47:08.904Z,100.00
2022-11-04T19:49:37.431Z,99.89
2022-11-04T19:52:04.156Z,99.08
2022-11-04T19:54:30.782Z,100.00
2022-11-04T19:56:57.468Z,99.51
2022-11-04T19:59:25.257Z,99.45
2022-11-04T20:01:51.844Z,100.00
2022-11-04T20:04:19.228Z,100.00
2022-11-04T20:06:45.813Z,100.00
2022-11-04T20:09:12.623Z,100.00
2022-11-04T20:11:39.992Z,99.48
2022-11-04T20:14:08.253Z,99.92
2022-11-04T20:16:34.922Z,99.27
2022-11-04T20:19:02.503Z,99.01
2022-11-04T20:21:31.434Z,99.76
2022-11-04T20:23:59.096Z,99.02
2022-11-04T20:26:25.848Z,100.00
2022-11-04T20:28:53.318Z,98.74
2022-11-04T20:31:21.902Z,98.78
2022-11-04T20:33:48.803Z,99.89
2022-11-04T20:36:16.188Z,99.20
2022-11-04T20:38:42.876Z,99.67
2022-11-04T20:41:11.220Z,99.64
2022-11-04T20:43:37.912Z,99.28
2022-11-04T20:46:08.727Z,98.44
2022-11-04T20:48:36.233Z,97.90
2022-11-04T20:51:10.582Z,97.81
2022-11-04T20:53:37.176Z,97.51
2022-11-04T20:56:04.996Z,97.85
2022-11-04T20:58:31.603Z,97.59
2022-11-04T21:01:03.333Z,97.73
2022-11-04T21:03:30.113Z,98.96
2022-11-04T21:05:57.014Z,97.85
2022-11-04T21:08:24.373Z,99.12
2022-11-04T21:10:55.599Z,99.64
2022-11-04T21:13:22.181Z,98.37
2022-11-04T21:15:57.710Z,98.65
2022-11-04T21:18:24.424Z,98.67
2022-11-04T21:20:51.323Z,98.78
2022-11-04T21:23:18.614Z,99.14
2022-11-04T21:25:49.381Z,98.90
2022-11-04T21:28:16.177Z,98.26
2022-11-04T21:30:45.604Z,98.80
2022-11-04T21:33:12.258Z,98.75
2022-11-04T21:35:39.508Z,98.39
2022-11-04T21:38:06.739Z,98.33
2022-11-04T21:40:33.976Z,98.30
2022-11-04T21:43:00.638Z,99.24
2022-11-04T21:45:27.253Z,99.48
2022-11-04T21:47:53.977Z,98.15
2022-11-04T21:50:20.555Z,98.84
2022-11-04T21:52:47.139Z,98.90
2022-11-04T21:55:13.765Z,98.23
2022-11-04T21:57:40.501Z,98.71
2022-11-04T22:00:08.588Z,99.14
2022-11-04T22:02:36.566Z,98.94
2022-11-04T22:05:03.262Z,97.87
2022-11-04T22:07:32.077Z,98.08
2022-11-04T22:09:58.654Z,98.33
2022-11-04T22:12:25.225Z,98.70
2022-11-04T22:14:51.825Z,99.41
2022-11-04T22:17:18.469Z,98.44
2022-11-04T22:19:45.120Z,99.15
2022-11-04T22:22:11.709Z,99.89
2022-11-04T22:24:38.373Z,100.00
2022-11-04T22:27:04.935Z,99.70
2022-11-04T22:29:31.535Z,100.00
2022-11-04T22:31:58.463Z,99.01
2022-11-04T22:34:25.146Z,100.00
2022-11-04T22:40:20.404Z,100.00
2022-11-04T22:42:47.017Z,100.00
2022-11-04T22:45:16.749Z,99.85
2022-11-04T22:47:43.570Z,98.90
2022-11-04T22:50:44.883Z,99.13
2022-11-04T22:53:11.946Z,98.61
2022-11-04T22:55:38.872Z,99.73
2022-11-04T22:58:05.815Z,98.17
2022-11-04T23:00:32.391Z,98.85
2022-11-04T23:02:59.462Z,98.65
2022-11-04T23:05:26.281Z,98.08
2022-11-04T23:07:52.856Z,99.03
2022-11-04T23:10:19.493Z,99.32
2022-11-04T23:12:46.058Z,98.92
2022-11-04T23:15:12.655Z,98.68
2022-11-04T23:17:39.315Z,100.00
2022-11-04T23:20:12.576Z,100.00
2022-11-04T23:22:39.203Z,98.48
2022-11-04T23:25:06.713Z,98.83
2022-11-04T23:27:36.418Z,99.72
2022-11-04T23:30:05.126Z,99.84
2022-11-04T23:32:31.670Z,99.42
2022-11-04T23:34:58.252Z,99.97
2022-11-04T23:37:24.827Z,100.00
2022-11-04T23:39:51.365Z,99.70
2022-11-04T23:42:19.498Z,100.00
2022-11-04T23:44:55.854Z,100.00
2022-11-04T23:47:22.425Z,100.00
2022-11-04T23:49:48.969Z,100.00
2022-11-04T23:52:15.540Z,100.00
2022-11-04T23:54:42.068Z,100.00
2022-11-04T23:57:15.156Z,100.00
2022-11-04T23:59:41.743Z,100.00
